Time;durP1;ratioP1;P1;durP2;ratioP2;P2;SDS_P1;SDS_P2;PMS_P1;PMS_P2;Temp;Humidity;BMP_temperature;BMP_pressure;BME280_temperature;BME280_humidity;BME280_pressure;Samples;Min_cycle;Max_cycle;Signal;HPM_P1;HPM_P2
2022/03/23 00:00:05;;;;;;;14.57;12.77;;;2.40;99.90;;;;;;4964300;28;21099;-53
2022/03/23 00:02:32;;;;;;;15.40;12.10;;;2.40;99.90;;;;;;4966935;28;20489;-52
2022/03/23 00:04:59;;;;;;;22.17;12.17;;;2.40;99.90;;;;;;4965920;28;20549;-53
2022/03/23 00:07:25;;;;;;;16.10;12.77;;;2.40;99.90;;;;;;4966123;28;20564;-52
2022/03/23 00:09:53;;;;;;;16.60;12.33;;;2.30;99.90;;;;;;4970417;28;20466;-53
2022/03/23 00:12:20;;;;;;;17.30;12.90;;;2.30;99.90;;;;;;4966524;28;20991;-53
2022/03/23 00:14:46;;;;;;;20.53;12.67;;;2.20;99.90;;;;;;4967964;28;20516;-52
2022/03/23 00:17:13;;;;;;;45.17;13.20;;;2.20;99.90;;;;;;4966909;28;20469;-52
2022/03/23 00:19:40;;;;;;;21.43;12.57;;;2.20;99.90;;;;;;4969221;28;20491;-52
2022/03/23 00:22:06;;;;;;;15.47;12.47;;;2.20;99.90;;;;;;4968046;28;20461;-51
2022/03/23 00:24:33;;;;;;;15.20;12.50;;;2.10;99.90;;;;;;4968399;28;20468;-53
2022/03/23 00:27:01;;;;;;;15.33;13.50;;;2.10;99.90;;;;;;4969867;28;20485;-52
2022/03/23 00:29:27;;;;;;;13.93;12.40;;;2.00;99.90;;;;;;4968603;28;20466;-52
2022/03/23 00:31:54;;;;;;;16.30;13.23;;;2.00;99.90;;;;;;4965752;28;20895;-52
2022/03/23 00:34:21;;;;;;;41.37;14.97;;;2.00;99.90;;;;;;4969026;28;20548;-51
2022/03/23 00:36:47;;;;;;;20.07;13.03;;;2.00;99.90;;;;;;4966853;28;20578;-52
2022/03/23 00:39:14;;;;;;;16.27;13.57;;;2.00;99.90;;;;;;4968653;28;20508;-53
2022/03/23 00:41:40;;;;;;;17.77;14.13;;;2.00;99.90;;;;;;4969845;28;20501;-53
2022/03/23 00:44:08;;;;;;;17.70;13.77;;;1.90;99.90;;;;;;4969064;28;20535;-53
2022/03/23 00:46:36;;;;;;;16.93;13.50;;;1.90;99.90;;;;;;4966938;28;20489;-52
2022/03/23 00:49:02;;;;;;;38.77;14.70;;;1.90;99.90;;;;;;4966434;28;20948;-52
2022/03/23 00:51:29;;;;;;;18.13;14.37;;;1.90;99.90;;;;;;4966826;28;20501;-52
2022/03/23 00:53:55;;;;;;;18.60;15.00;;;1.90;99.90;;;;;;4967101;28;20584;-52
2022/03/23 00:56:22;;;;;;;24.30;14.77;;;1.80;99.90;;;;;;4969430;28;20490;-52
2022/03/23 00:58:48;;;;;;;23.63;15.60;;;1.80;99.90;;;;;;4967385;28;20544;-52
2022/03/23 01:01:16;;;;;;;17.47;15.63;;;1.80;99.90;;;;;;4966988;28;20509;-52
2022/03/23 01:03:43;;;;;;;15.57;13.20;;;1.80;99.90;;;;;;4966555;28;20457;-52
2022/03/23 01:06:10;;;;;;;17.63;14.60;;;1.70;99.90;;;;;;4968563;28;20504;-53
2022/03/23 01:08:37;;;;;;;21.60;14.90;;;1.70;99.90;;;;;;4968397;28;20501;-52
2022/03/23 01:11:05;;;;;;;17.60;14.20;;;1.70;99.90;;;;;;4966815;28;20513;-52
2022/03/23 01:13:32;;;;;;;18.03;15.50;;;1.60;99.90;;;;;;4966157;28;20499;-52
2022/03/23 01:15:59;;;;;;;18.67;14.63;;;1.60;99.90;;;;;;4967884;28;20497;-52
2022/03/23 01:18:27;;;;;;;16.37;14.17;;;1.60;99.90;;;;;;4967299;28;20486;-52
2022/03/23 01:20:53;;;;;;;18.17;14.73;;;1.50;99.90;;;;;;4967787;28;20462;-52
2022/03/23 01:23:20;;;;;;;22.00;15.07;;;1.50;99.90;;;;;;4968771;28;20462;-53
2022/03/23 01:25:46;;;;;;;17.43;15.47;;;1.40;99.90;;;;;;4966185;28;20916;-53
2022/03/23 01:28:13;;;;;;;19.60;15.33;;;1.40;99.90;;;;;;4966632;28;21045;-52
2022/03/23 01:30:39;;;;;;;17.73;15.23;;;1.30;99.90;;;;;;4968433;28;21041;-51
2022/03/23 01:33:06;;;;;;;20.50;15.73;;;1.30;99.90;;;;;;4967308;28;20576;-52
2022/03/23 01:35:34;;;;;;;17.53;14.17;;;1.30;99.90;;;;;;4967867;28;20501;-53
2022/03/23 01:38:00;;;;;;;19.43;15.30;;;1.30;99.90;;;;;;4966135;28;21218;-53
2022/03/23 01:40:28;;;;;;;19.33;15.57;;;1.30;99.90;;;;;;4966580;28;20896;-52
2022/03/23 01:42:54;;;;;;;21.67;16.30;;;1.30;99.90;;;;;;4966655;28;20469;-52
2022/03/23 01:45:21;;;;;;;20.27;16.40;;;1.20;99.90;;;;;;4967787;28;20466;-52
2022/03/23 01:47:47;;;;;;;23.73;15.57;;;1.20;99.90;;;;;;4967495;28;20484;-53
2022/03/23 01:50:14;;;;;;;18.07;16.00;;;1.20;99.90;;;;;;4968807;28;20497;-52
2022/03/23 01:52:42;;;;;;;22.47;16.47;;;1.20;99.90;;;;;;4964982;28;20549;-51
2022/03/23 01:55:11;;;;;;;21.60;15.80;;;1.10;99.90;;;;;;4967118;28;20513;-52
2022/03/23 01:57:41;;;;;;;21.03;15.77;;;1.20;99.90;;;;;;4967140;28;20483;-51
2022/03/23 02:00:08;;;;;;;17.90;15.97;;;1.10;99.90;;;;;;4965323;28;20959;-51
2022/03/23 02:02:35;;;;;;;22.50;15.83;;;1.10;99.90;;;;;;4967101;28;20496;-51
2022/03/23 02:05:02;;;;;;;24.60;17.00;;;1.10;99.90;;;;;;4966797;28;20462;-52
2022/03/23 02:07:29;;;;;;;21.33;15.80;;;1.10;99.90;;;;;;4965194;28;20517;-52
2022/03/23 02:09:57;;;;;;;21.20;16.63;;;1.20;99.90;;;;;;4967984;28;20469;-51
2022/03/23 02:12:26;;;;;;;18.73;16.30;;;1.10;99.90;;;;;;4967009;28;20497;-51
2022/03/23 02:14:52;;;;;;;20.60;16.40;;;1.10;99.90;;;;;;4967547;28;20560;-51
2022/03/23 02:17:19;;;;;;;21.57;17.70;;;1.10;99.90;;;;;;4967548;28;20485;-52
2022/03/23 02:19:45;;;;;;;18.97;16.20;;;1.10;99.90;;;;;;4966633;28;21017;-53
2022/03/23 02:22:14;;;;;;;25.63;17.90;;;1.00;99.90;;;;;;4966573;28;22380;-53
2022/03/23 02:24:41;;;;;;;29.40;17.60;;;1.10;99.90;;;;;;4967762;28;20454;-51
2022/03/23 02:27:09;;;;;;;21.57;17.97;;;1.00;99.90;;;;;;4968466;28;20457;-52
2022/03/23 02:29:36;;;;;;;24.23;18.20;;;1.00;99.90;;;;;;4967141;28;21069;-57
2022/03/23 02:32:03;;;;;;;28.33;16.53;;;1.00;99.90;;;;;;4966854;28;20524;-53
2022/03/23 02:34:30;;;;;;;22.10;17.87;;;1.00;99.90;;;;;;4967517;28;20521;-53
2022/03/23 02:36:57;;;;;;;21.60;16.70;;;1.00;99.90;;;;;;4968420;28;20500;-52
2022/03/23 02:39:26;;;;;;;30.23;18.97;;;1.00;96.90;;;;;;4967345;28;20497;-51
2022/03/23 02:41:53;;;;;;;23.87;18.17;;;0.90;97.50;;;;;;4967353;28;20457;-52
2022/03/23 02:44:20;;;;;;;23.57;18.63;;;1.00;98.90;;;;;;4966515;28;20900;-52
2022/03/23 02:46:47;;;;;;;25.23;19.00;;;0.90;97.20;;;;;;4966479;28;20493;-53
2022/03/23 02:49:20;;;;;;;20.10;17.20;;;0.90;98.30;;;;;;4966006;28;20536;-52
2022/03/23 02:51:46;;;;;;;25.10;17.43;;;0.90;98.70;;;;;;4964468;28;20473;-53
2022/03/23 03:03:08;;;;;;;20.70;16.90;;;0.80;91.90;;;;;;4965979;28;20589;-52
2022/03/23 03:05:35;;;;;;;20.87;16.90;;;0.80;91.60;;;;;;4970312;28;20549;-52
2022/03/23 03:10:45;;;;;;;33.50;20.27;;;0.80;86.50;;;;;;4965675;28;20468;-50
2022/03/23 03:13:13;;;;;;;22.57;17.17;;;0.70;85.60;;;;;;4966195;28;21532;-50
2022/03/23 03:15:40;;;;;;;23.73;17.33;;;0.70;87.80;;;;;;4966120;28;21019;-51
2022/03/23 03:18:06;;;;;;;26.47;18.97;;;0.70;86.90;;;;;;4966791;28;20577;-52
2022/03/23 03:20:33;;;;;;;22.67;17.90;;;0.70;87.10;;;;;;4964791;28;20489;-51
2022/03/23 03:22:59;;;;;;;24.23;17.40;;;0.70;84.90;;;;;;4965636;28;20540;-51
2022/03/23 03:25:26;;;;;;;19.20;16.00;;;0.60;84.60;;;;;;4966343;28;20481;-50
2022/03/23 03:27:53;;;;;;;23.47;17.03;;;0.60;85.30;;;;;;4964215;28;20568;-50
2022/03/23 03:30:21;;;;;;;22.67;18.00;;;0.60;78.20;;;;;;4967045;28;20489;-50
2022/03/23 03:32:47;;;;;;;36.57;18.40;;;0.50;72.10;;;;;;4966842;28;20488;-51
2022/03/23 03:35:15;;;;;;;23.60;17.30;;;0.50;73.20;;;;;;4964079;28;20568;-50
2022/03/23 03:37:42;;;;;;;24.40;18.93;;;0.50;75.20;;;;;;4963031;28;20580;-51
2022/03/23 03:40:10;;;;;;;26.67;17.40;;;0.50;72.80;;;;;;4964958;28;21046;-51
2022/03/23 03:42:37;;;;;;;23.17;18.00;;;0.50;75.40;;;;;;4968713;28;20461;-51
2022/03/23 03:45:05;;;;;;;22.23;17.90;;;0.50;76.50;;;;;;4969105;28;20454;-50
2022/03/23 03:47:33;;;;;;;21.67;17.53;;;0.50;77.30;;;;;;4965970;28;20571;-51
2022/03/23 03:49:59;;;;;;;26.40;18.60;;;0.50;72.50;;;;;;4966214;28;20920;-50
2022/03/23 03:52:26;;;;;;;24.80;17.97;;;0.50;73.60;;;;;;4968997;28;20556;-51
2022/03/23 03:54:52;;;;;;;21.43;17.97;;;0.50;74.50;;;;;;4967663;28;20481;-51
2022/03/23 03:57:19;;;;;;;32.33;18.47;;;0.40;74.10;;;;;;4968879;28;21066;-51
2022/03/23 03:59:45;;;;;;;27.50;19.23;;;0.40;70.40;;;;;;4969306;28;20995;-50
2022/03/23 04:02:14;;;;;;;22.50;17.80;;;0.30;65.40;;;;;;4967338;28;20592;-51
2022/03/23 04:04:42;;;;;;;24.07;19.27;;;0.30;63.90;;;;;;4968954;28;20461;-51
2022/03/23 04:07:08;;;;;;;29.23;19.07;;;0.30;60.40;;;;;;4968250;28;20543;-53
2022/03/23 04:09:35;;;;;;;22.10;18.57;;;0.30;55.70;;;;;;4969374;28;20473;-51
2022/03/23 04:12:01;;;;;;;24.03;16.67;;;0.30;55.00;;;;;;4969900;28;20465;-50
2022/03/23 04:14:28;;;;;;;25.87;19.67;;;0.40;54.50;;;;;;4969204;28;21620;-51
2022/03/23 04:16:55;;;;;;;25.23;18.87;;;0.40;59.10;;;;;;4969587;28;21090;-51
2022/03/23 04:19:21;;;;;;;25.60;18.87;;;0.40;64.10;;;;;;4968951;28;20485;-51
2022/03/23 04:21:50;;;;;;;18.33;16.13;;;0.40;63.90;;;;;;4970603;28;20492;-51
2022/03/23 04:24:16;;;;;;;22.03;18.33;;;0.30;64.50;;;;;;4968780;28;20544;-51
2022/03/23 04:26:44;;;;;;;22.63;18.57;;;0.40;61.00;;;;;;4967903;28;20504;-52
2022/03/23 04:29:10;;;;;;;22.03;18.20;;;0.40;63.40;;;;;;4965859;28;20692;-50
2022/03/23 04:31:37;;;;;;;32.10;19.50;;;0.30;65.00;;;;;;4969274;28;20556;-52
2022/03/23 04:34:03;;;;;;;34.37;18.90;;;0.30;60.90;;;;;;4968216;28;21031;-50
2022/03/23 04:36:30;;;;;;;24.57;19.20;;;0.30;68.60;;;;;;4967909;28;21030;-50
2022/03/23 04:38:58;;;;;;;23.60;18.83;;;0.30;59.50;;;;;;4966852;28;20571;-51
2022/03/23 04:41:24;;;;;;;23.97;18.10;;;0.40;62.70;;;;;;4968369;28;21454;-50
2022/03/23 04:43:51;;;;;;;20.53;17.60;;;0.40;64.10;;;;;;4968221;28;20516;-50
2022/03/23 04:46:18;;;;;;;22.60;18.73;;;0.40;65.70;;;;;;4967454;28;21090;-50
2022/03/23 04:48:44;;;;;;;28.03;20.63;;;0.40;66.10;;;;;;4967531;28;21283;-50
2022/03/23 04:51:12;;;;;;;22.83;18.80;;;0.40;63.30;;;;;;4965777;28;20560;-50
2022/03/23 04:53:39;;;;;;;29.00;19.43;;;0.40;64.20;;;;;;4966647;28;20527;-50
2022/03/23 04:56:07;;;;;;;24.70;18.63;;;0.40;65.20;;;;;;4968036;28;20584;-51
2022/03/23 04:58:35;;;;;;;25.67;18.90;;;0.50;65.60;;;;;;4968229;28;20492;-51
2022/03/23 05:01:01;;;;;;;24.37;18.87;;;0.40;66.50;;;;;;4966839;28;20549;-51
2022/03/23 05:03:28;;;;;;;27.73;19.37;;;0.40;64.60;;;;;;4968121;28;20469;-51
2022/03/23 05:05:55;;;;;;;27.60;20.83;;;0.30;64.20;;;;;;4970980;28;20457;-52
2022/03/23 05:08:22;;;;;;;23.43;18.90;;;0.30;61.40;;;;;;4967955;28;20524;-52
2022/03/23 05:10:48;;;;;;;22.03;17.83;;;0.30;57.70;;;;;;4967091;28;20465;-53
2022/03/23 05:13:16;;;;;;;26.37;18.50;;;0.30;57.60;;;;;;4964219;28;20897;-52
2022/03/23 05:15:43;;;;;;;26.77;18.87;;;0.20;57.10;;;;;;4967242;28;20577;-52
2022/03/23 05:18:10;;;;;;;23.20;18.40;;;0.20;54.20;;;;;;4968004;28;20485;-53
2022/03/23 05:20:36;;;;;;;27.55;19.92;;;0.30;53.70;;;;;;4968628;28;20549;-52
2022/03/23 05:23:03;;;;;;;22.87;19.50;;;0.30;51.20;;;;;;4966305;28;20233;-53
2022/03/23 05:25:30;;;;;;;31.53;18.23;;;0.20;49.30;;;;;;4967404;28;20561;-53
2022/03/23 05:27:56;;;;;;;24.47;19.80;;;0.20;47.50;;;;;;4968144;28;20597;-53
2022/03/23 05:30:24;;;;;;;28.67;21.00;;;0.20;46.60;;;;;;4968057;28;20561;-53
2022/03/23 05:32:51;;;;;;;33.37;21.60;;;0.30;49.00;;;;;;4965994;28;20501;-52
2022/03/23 05:35:17;;;;;;;28.47;19.47;;;0.30;50.70;;;;;;4968586;28;20653;-52
2022/03/23 05:37:44;;;;;;;36.73;23.03;;;0.30;53.50;;;;;;4966355;28;20493;-52
2022/03/23 05:40:11;;;;;;;36.03;27.17;;;0.30;46.70;;;;;;4966669;28;20544;-51
2022/03/23 05:42:38;;;;;;;63.83;40.97;;;0.40;49.00;;;;;;4967269;28;20462;-50
2022/03/23 05:45:05;;;;;;;45.30;32.87;;;0.40;51.80;;;;;;4968830;28;20564;-53
2022/03/23 05:47:34;;;;;;;45.07;30.53;;;0.50;54.70;;;;;;4967110;28;20580;-54
2022/03/23 05:50:01;;;;;;;44.00;28.90;;;0.50;57.00;;;;;;4966039;28;20838;-52
2022/03/23 05:52:27;;;;;;;61.43;30.73;;;0.60;57.90;;;;;;4968553;28;20850;-52
2022/03/23 05:54:54;;;;;;;46.00;29.47;;;0.70;53.10;;;;;;4967275;28;20485;-55
2022/03/23 05:57:21;;;;;;;47.30;30.93;;;0.90;67.40;;;;;;4964324;28;20572;-54
2022/03/23 05:59:48;;;;;;;40.10;29.87;;;1.30;77.60;;;;;;4974766;28;20453;-52
2022/03/23 06:02:14;;;;;;;38.13;27.77;;;1.40;85.20;;;;;;4970643;28;20556;-54
2022/03/23 06:04:42;;;;;;;43.07;24.40;;;1.50;86.70;;;;;;4967012;28;20462;-53
2022/03/23 06:07:09;;;;;;;34.10;22.87;;;1.60;87.30;;;;;;4965273;28;20552;-54
2022/03/23 06:09:35;;;;;;;38.00;21.70;;;1.60;87.50;;;;;;4970309;28;20477;-54
2022/03/23 06:12:04;;;;;;;38.20;22.13;;;1.60;87.50;;;;;;4965691;28;20971;-54
2022/03/23 06:14:32;;;;;;;44.97;22.63;;;1.80;88.00;;;;;;4966710;28;20488;-52
2022/03/23 06:16:58;;;;;;;43.17;22.53;;;1.90;93.70;;;;;;4968908;28;20513;-54
2022/03/23 06:19:25;;;;;;;42.67;23.10;;;2.00;94.20;;;;;;4964729;28;20537;-53
2022/03/23 06:21:53;;;;;;;34.27;20.40;;;2.20;94.00;;;;;;4969906;28;20493;-52
2022/03/23 06:24:19;;;;;;;35.23;22.30;;;2.40;99.20;;;;;;4969366;28;20553;-54
2022/03/23 06:26:46;;;;;;;33.00;21.10;;;2.50;96.80;;;;;;4963105;28;20564;-52
2022/03/23 06:29:12;;;;;;;28.17;19.90;;;2.80;99.90;;;;;;4970802;28;20513;-53
2022/03/23 06:31:39;;;;;;;28.43;21.37;;;2.90;99.90;;;;;;4970178;28;20905;-52
2022/03/23 06:34:07;;;;;;;29.40;21.83;;;3.00;99.90;;;;;;4968711;28;20970;-52
2022/03/23 06:36:35;;;;;;;37.70;20.63;;;3.10;99.90;;;;;;4971085;28;20481;-52
2022/03/23 06:39:03;;;;;;;27.77;20.87;;;3.10;99.90;;;;;;4971316;28;20501;-52
2022/03/23 06:41:29;;;;;;;31.97;22.30;;;3.20;99.90;;;;;;4968024;28;20907;-52
2022/03/23 06:43:56;;;;;;;24.80;20.33;;;3.30;99.90;;;;;;4973233;28;20484;-52
2022/03/23 06:46:23;;;;;;;30.50;20.83;;;3.50;99.90;;;;;;4968585;28;20548;-51
2022/03/23 06:48:50;;;;;;;25.67;20.20;;;3.90;99.90;;;;;;4969860;28;21315;-51
2022/03/23 06:51:16;;;;;;;30.67;20.73;;;4.20;99.90;;;;;;4970483;28;20490;-51
2022/03/23 06:53:43;;;;;;;30.17;20.70;;;4.40;99.90;;;;;;4972882;28;20516;-51
2022/03/23 06:56:11;;;;;;;32.67;21.77;;;4.60;99.90;;;;;;4969765;28;20588;-52
2022/03/23 06:58:38;;;;;;;38.50;20.73;;;4.70;99.90;;;;;;4971288;28;20573;-51
2022/03/23 07:01:05;;;;;;;32.60;21.43;;;4.80;99.90;;;;;;4970430;28;20557;-51
2022/03/23 07:03:31;;;;;;;30.83;21.03;;;4.90;99.90;;;;;;4970088;28;20544;-51
2022/03/23 07:05:58;;;;;;;37.93;20.77;;;5.10;99.90;;;;;;4969346;28;20477;-52
2022/03/23 07:11:08;;;;;;;36.10;21.20;;;5.60;99.90;;;;;;4961013;28;20456;-52
2022/03/23 07:13:36;;;;;;;37.77;24.07;;;5.70;99.90;;;;;;4966523;28;20548;-51
2022/03/23 07:16:03;;;;;;;33.17;21.87;;;5.90;99.90;;;;;;4962129;28;20581;-51
2022/03/23 07:18:30;;;;;;;32.50;21.40;;;6.20;99.90;;;;;;4964311;28;20564;-52
2022/03/23 07:20:56;;;;;;;32.00;20.53;;;6.80;99.90;;;;;;4975719;28;20489;-52
2022/03/23 07:23:23;;;;;;;35.47;22.43;;;7.40;99.90;;;;;;4968093;28;20485;-51
2022/03/23 07:25:49;;;;;;;32.20;19.87;;;8.00;99.90;;;;;;4979929;28;20799;-53
2022/03/23 07:28:16;;;;;;;35.47;22.50;;;8.40;99.90;;;;;;4981913;28;20470;-52
2022/03/23 07:30:44;;;;;;;33.80;22.80;;;9.00;99.90;;;;;;4969508;28;20880;-51
2022/03/23 07:33:10;;;;;;;40.37;21.77;;;9.60;99.90;;;;;;4974300;28;20485;-51
2022/03/23 07:35:37;;;;;;;35.07;21.07;;;10.00;99.90;;;;;;4967667;28;20569;-52
2022/03/23 07:38:04;;;;;;;35.43;22.90;;;10.20;99.90;;;;;;4969541;28;20584;-52
2022/03/23 07:40:30;;;;;;;35.57;22.50;;;10.50;99.90;;;;;;4963877;28;20497;-52
2022/03/23 07:42:57;;;;;;;32.77;22.60;;;11.00;99.90;;;;;;4970033;28;20552;-52
2022/03/23 07:45:24;;;;;;;36.23;22.60;;;11.10;99.90;;;;;;4965081;28;20552;-53
2022/03/23 07:47:51;;;;;;;31.47;21.57;;;11.40;99.90;;;;;;4968706;28;20596;-52
2022/03/23 07:50:18;;;;;;;33.60;21.53;;;11.60;99.90;;;;;;4968985;28;20535;-52
2022/03/23 07:52:45;;;;;;;32.70;22.07;;;11.60;99.90;;;;;;4970993;28;20497;-52
2022/03/23 07:55:11;;;;;;;37.93;22.80;;;11.70;99.90;;;;;;4966595;28;20560;-51
2022/03/23 07:57:38;;;;;;;37.97;23.00;;;11.40;99.90;;;;;;4972290;28;21098;-52
2022/03/23 08:00:05;;;;;;;39.90;22.97;;;11.60;99.90;;;;;;4966539;28;20461;-51
2022/03/23 08:02:32;;;;;;;43.40;22.90;;;11.80;99.90;;;;;;4972532;28;20468;-51
2022/03/23 08:05:00;;;;;;;36.37;21.87;;;12.30;99.90;;;;;;4970943;28;20952;-52
2022/03/23 08:07:26;;;;;;;34.07;22.00;;;12.80;99.90;;;;;;4970715;28;20579;-52
2022/03/23 08:09:53;;;;;;;28.23;21.40;;;13.30;99.90;;;;;;4966603;28;20496;-51
2022/03/23 08:12:20;;;;;;;30.70;21.80;;;13.40;99.90;;;;;;4967847;28;21969;-52
2022/03/23 08:14:46;;;;;;;34.30;24.63;;;13.20;99.90;;;;;;4969169;28;21002;-51
2022/03/23 08:17:13;;;;;;;35.10;22.87;;;13.00;99.90;;;;;;4971452;28;20497;-52
2022/03/23 08:19:40;;;;;;;33.07;23.10;;;13.00;99.90;;;;;;4968513;28;20562;-51
2022/03/23 08:22:09;;;;;;;34.80;24.30;;;13.30;99.90;;;;;;4966837;28;20465;-52
2022/03/23 08:24:35;;;;;;;33.70;22.20;;;13.10;99.90;;;;;;4967940;28;20915;-51
2022/03/23 08:27:02;;;;;;;26.80;20.83;;;13.80;99.90;;;;;;4970617;28;20552;-51
2022/03/23 08:29:28;;;;;;;29.60;21.27;;;13.80;99.90;;;;;;4969295;28;20557;-52
2022/03/23 08:31:55;;;;;;;34.50;22.47;;;13.50;99.90;;;;;;4966234;28;20497;-51
2022/03/23 08:34:21;;;;;;;28.30;21.07;;;13.60;99.90;;;;;;4972662;28;20560;-51
2022/03/23 08:36:48;;;;;;;36.23;24.00;;;13.50;99.90;;;;;;4971879;28;20521;-52
2022/03/23 08:39:16;;;;;;;31.63;22.30;;;14.00;99.90;;;;;;4963918;28;20576;-52
2022/03/23 08:41:42;;;;;;;35.53;23.60;;;13.80;99.90;;;;;;4972239;28;20556;-52
2022/03/23 08:44:09;;;;;;;30.33;20.17;;;14.30;99.90;;;;;;4970761;28;20905;-52
2022/03/23 08:46:35;;;;;;;33.00;23.30;;;14.60;99.90;;;;;;4970303;28;20453;-52
2022/03/23 08:49:02;;;;;;;38.37;21.97;;;14.50;99.90;;;;;;4970677;28;20576;-51
2022/03/23 08:51:29;;;;;;;34.77;22.80;;;15.00;99.90;;;;;;4967357;28;20556;-52
2022/03/23 08:53:55;;;;;;;31.27;20.80;;;15.10;99.90;;;;;;4969488;28;20497;-52
2022/03/23 08:56:23;;;;;;;32.93;22.73;;;15.10;99.90;;;;;;4968209;28;22139;-51
2022/03/23 08:58:49;;;;;;;31.60;22.20;;;15.40;99.90;;;;;;4965867;28;20588;-51
2022/03/23 09:01:16;;;;;;;33.20;21.70;;;16.10;99.90;;;;;;4965733;28;20556;-50
2022/03/23 09:03:44;;;;;;;28.27;21.60;;;16.60;99.90;;;;;;4967078;28;20928;-51
2022/03/23 09:06:10;;;;;;;39.80;23.57;;;16.50;99.90;;;;;;4969854;28;20531;-51
2022/03/23 09:08:38;;;;;;;37.47;22.60;;;17.30;99.90;;;;;;4968112;28;20576;-52
2022/03/23 09:11:05;;;;;;;29.47;22.13;;;17.40;99.90;;;;;;4965369;28;20486;-51
2022/03/23 09:13:33;;;;;;;35.83;22.50;;;18.60;99.90;;;;;;4968251;28;20516;-51
2022/03/23 09:16:00;;;;;;;29.27;23.60;;;18.50;99.90;;;;;;4965555;28;20576;-51
2022/03/23 09:18:28;;;;;;;38.20;23.43;;;18.70;99.90;;;;;;4962174;28;21002;-51
2022/03/23 09:20:55;;;;;;;27.57;21.53;;;19.40;99.90;;;;;;4971697;28;21019;-52
2022/03/23 09:23:22;;;;;;;31.30;22.47;;;19.40;99.90;;;;;;4974356;28;20533;-50
2022/03/23 09:25:49;;;;;;;35.93;24.30;;;19.10;99.90;;;;;;4973824;28;20442;-51
2022/03/23 09:28:16;;;;;;;34.40;24.00;;;19.10;99.90;;;;;;4973720;28;20465;-52
2022/03/23 09:30:44;;;;;;;30.20;23.43;;;19.40;99.90;;;;;;4973675;28;20897;-51
2022/03/23 09:33:11;;;;;;;33.43;22.43;;;20.20;99.90;;;;;;4973867;28;20482;-50
2022/03/23 09:35:37;;;;;;;35.13;22.63;;;20.30;99.90;;;;;;4971228;28;20661;-51
2022/03/23 09:38:04;;;;;;;32.10;23.87;;;19.90;99.90;;;;;;4973771;28;20944;-51
2022/03/23 09:40:32;;;;;;;36.37;22.77;;;20.40;99.90;;;;;;4967613;28;20466;-51
2022/03/23 09:43:00;;;;;;;38.97;23.70;;;19.90;99.90;;;;;;4960801;28;20477;-51
2022/03/23 09:45:38;;;;;;;33.00;22.60;;;19.60;99.90;;;;;;4961926;28;20493;-51
2022/03/23 09:48:09;;;;;;;40.60;23.70;;;19.10;99.90;;;;;;4956998;28;20572;-51
2022/03/23 09:50:38;;;;;;;30.43;22.90;;;18.80;99.90;;;;;;4959232;28;20476;-50
2022/03/23 09:53:05;;;;;;;36.30;24.33;;;19.30;99.90;;;;;;4963577;28;20552;-52
2022/03/23 09:55:31;;;;;;;35.00;26.10;;;18.90;99.90;;;;;;4958859;28;20592;-51
2022/03/23 09:58:00;;;;;;;42.57;25.67;;;19.20;99.90;;;;;;4958398;28;21082;-51
2022/03/23 10:00:33;;;;;;;35.97;23.87;;;20.30;99.90;;;;;;4959672;28;20469;-52
2022/03/23 10:03:37;;;;;;;40.33;24.73;;;20.00;99.90;;;;;;4963417;28;20552;-51
2022/03/23 10:06:39;;;;;;;46.93;25.60;;;20.70;99.90;;;;;;4967259;28;20543;-52
2022/03/23 10:09:36;;;;;;;39.00;23.90;;;20.50;99.90;;;;;;4956823;28;21057;-51
2022/03/23 10:12:41;;;;;;;28.87;22.83;;;20.70;99.90;;;;;;4960810;28;20546;-52
2022/03/23 10:15:45;;;;;;;34.50;25.27;;;20.60;99.90;;;;;;4965217;28;20552;-50
2022/03/23 10:18:40;;;;;;;29.93;24.17;;;19.90;99.90;;;;;;4965314;28;20608;-52
2022/03/23 10:21:07;;;;;;;32.53;24.13;;;20.50;99.90;;;;;;4965077;28;20541;-51
2022/03/23 10:23:35;;;;;;;38.00;27.20;;;20.70;99.90;;;;;;4966433;28;20981;-51
2022/03/23 10:26:12;;;;;;;31.60;23.90;;;21.10;99.90;;;;;;4969154;28;20457;-53
2022/03/23 10:28:38;;;;;;;37.30;24.77;;;21.60;99.90;;;;;;4961556;28;20852;-51
2022/03/23 10:31:16;;;;;;;35.00;24.80;;;21.20;99.90;;;;;;4961337;28;20564;-52
2022/03/23 10:33:43;;;;;;;36.67;23.20;;;21.50;99.90;;;;;;4959665;28;20962;-51
2022/03/23 10:36:11;;;;;;;36.50;23.33;;;20.90;99.90;;;;;;4957797;28;20478;-52
2022/03/23 10:38:40;;;;;;;27.47;21.57;;;20.50;99.90;;;;;;4958532;28;20500;-51
2022/03/23 10:41:10;;;;;;;31.30;23.40;;;21.80;99.90;;;;;;4957475;28;20564;-51
2022/03/23 10:43:39;;;;;;;29.20;22.53;;;21.30;99.90;;;;;;4963129;28;21358;-52
2022/03/23 10:46:09;;;;;;;28.83;22.07;;;20.50;99.90;;;;;;4963149;28;20461;-52
2022/03/23 10:48:36;;;;;;;35.37;24.17;;;21.20;99.90;;;;;;4963477;28;20596;-51
2022/03/23 10:51:04;;;;;;;30.50;21.60;;;20.70;99.90;;;;;;4965244;28;20552;-51
2022/03/23 10:53:38;;;;;;;33.70;22.50;;;21.40;99.90;;;;;;4964108;28;20453;-52
2022/03/23 10:56:07;;;;;;;28.77;23.13;;;21.30;99.90;;;;;;4968242;28;20495;-50
2022/03/23 10:58:35;;;;;;;30.13;23.20;;;21.70;99.90;;;;;;4965296;28;20572;-51
2022/03/23 11:01:03;;;;;;;29.27;23.37;;;22.00;99.90;;;;;;4969944;28;20998;-52
2022/03/23 11:03:38;;;;;;;29.37;22.67;;;21.50;99.90;;;;;;4973177;28;21006;-52
2022/03/23 11:06:06;;;;;;;33.37;24.10;;;21.40;99.90;;;;;;4970675;28;20893;-51
2022/03/23 11:08:33;;;;;;;28.67;21.93;;;21.10;99.90;;;;;;4971764;23;20515;-49
2022/03/23 11:16:38;;;;;;;40.27;23.20;;;19.00;99.90;;;;;;4944386;29;20989;-49
2022/03/23 11:19:08;;;;;;;33.43;21.67;;;18.80;99.90;;;;;;4935062;28;21108;-50
2022/03/23 11:21:55;;;;;;;29.90;20.97;;;18.70;99.90;;;;;;4930935;29;20554;-50
2022/03/23 11:24:22;;;;;;;39.03;21.10;;;18.90;99.90;;;;;;4935009;29;20549;-50
2022/03/23 11:26:49;;;;;;;28.37;20.70;;;19.20;99.90;;;;;;4935764;29;20562;-50
2022/03/23 11:29:17;;;;;;;26.23;21.60;;;19.20;99.90;;;;;;4938552;29;20570;-49
2022/03/23 11:31:45;;;;;;;35.57;21.10;;;19.20;99.90;;;;;;4937089;29;20558;-51
2022/03/23 11:34:13;;;;;;;23.60;20.10;;;19.50;99.90;;;;;;4939280;29;20526;-50
2022/03/23 11:36:40;;;;;;;27.10;21.10;;;19.80;99.90;;;;;;4936123;29;20589;-48
2022/03/23 11:39:07;;;;;;;27.50;20.90;;;19.60;99.90;;;;;;4939870;29;20841;-49
2022/03/23 11:41:34;;;;;;;43.27;21.10;;;20.30;99.90;;;;;;4940525;29;20903;-49
2022/03/23 11:44:01;;;;;;;22.10;18.50;;;20.50;99.90;;;;;;4929919;29;20992;-49
2022/03/23 11:46:29;;;;;;;36.73;20.40;;;20.20;99.90;;;;;;4935769;29;20471;-49
2022/03/23 11:49:08;;;;;;;35.67;21.70;;;19.60;99.90;;;;;;4935884;29;20566;-49
2022/03/23 11:51:50;;;;;;;35.90;21.57;;;19.40;99.90;;;;;;4931675;29;20553;-48
2022/03/23 11:54:24;;;;;;;28.37;21.23;;;19.40;99.90;;;;;;4932955;29;20477;-48
2022/03/23 11:56:56;;;;;;;28.67;21.30;;;19.40;99.90;;;;;;4934958;29;20475;-50
2022/03/23 11:59:24;;;;;;;26.77;20.20;;;19.40;99.90;;;;;;4935049;29;20486;-49
2022/03/23 12:01:54;;;;;;;27.47;21.63;;;19.50;99.90;;;;;;4937215;29;20553;-49
2022/03/23 12:04:22;;;;;;;25.93;20.37;;;19.50;99.90;;;;;;4936619;29;20562;-49
2022/03/23 12:06:57;;;;;;;30.23;20.87;;;19.70;99.90;;;;;;4939447;29;20805;-49
2022/03/23 12:09:31;;;;;;;29.13;21.20;;;19.70;99.90;;;;;;4935022;29;21003;-48
2022/03/23 12:11:58;;;;;;;35.73;21.37;;;19.70;99.90;;;;;;4927333;29;20463;-49
2022/03/23 12:14:27;;;;;;;28.33;23.20;;;19.70;99.90;;;;;;4935072;29;20559;-49
2022/03/23 12:17:29;;;;;;;32.43;23.70;;;19.50;99.90;;;;;;4928249;29;20567;-50
2022/03/23 12:20:08;;;;;;;28.03;21.90;;;19.40;99.90;;;;;;4929973;29;20498;-51
2022/03/23 12:23:00;;;;;;;30.40;21.03;;;19.60;99.90;;;;;;4932861;29;20495;-51
2022/03/23 12:25:47;;;;;;;32.97;24.67;;;19.70;99.90;;;;;;4931392;29;21040;-51
2022/03/23 12:28:32;;;;;;;31.10;21.63;;;19.80;99.90;;;;;;4930281;29;20479;-51
2022/03/23 12:31:11;;;;;;;29.73;20.97;;;19.70;99.90;;;;;;4927285;29;20961;-51
2022/03/23 12:34:10;;;;;;;29.30;22.40;;;19.50;99.90;;;;;;4924073;29;20969;-50
2022/03/23 12:36:59;;;;;;;33.40;22.87;;;19.90;99.90;;;;;;4928876;29;20487;-50
2022/03/23 12:39:31;;;;;;;30.03;22.53;;;20.10;99.90;;;;;;4920637;29;20582;-52
2022/03/23 12:41:58;;;;;;;37.10;24.53;;;20.50;99.90;;;;;;4918998;29;20455;-51
2022/03/23 12:44:30;;;;;;;30.00;22.90;;;20.50;99.90;;;;;;4923382;29;21061;-50
2022/03/23 12:47:04;;;;;;;26.30;21.70;;;21.10;99.90;;;;;;4923910;29;20804;-50
2022/03/23 12:58:08;;;;;;;28.57;20.77;;;20.70;99.90;;;;;;4909324;29;20859;-52
2022/03/23 13:00:40;;;;;;;27.63;21.00;;;20.10;99.90;;;;;;4933562;29;20471;-52
2022/03/23 13:03:46;;;;;;;30.60;21.27;;;20.50;99.90;;;;;;4929034;29;20470;-52
2022/03/23 13:06:14;;;;;;;28.63;21.40;;;21.10;99.90;;;;;;4928448;29;20972;-51
2022/03/23 13:08:48;;;;;;;29.87;22.60;;;21.40;99.90;;;;;;4934019;29;20527;-52